Marshall, Alaska
Current Conditions -  °F | °C
As of 3:56 PM on Sunday 23 Nov 2014 (Local Time) from PADM Reporting Station
Light Snow Light Snow  
Wind Chill:   Ceiling: Unl
Heat Index: 15°   Visibility: 10mi
Dew Point:   Wind: 13mph
Humidity: 71%   Direction: 40°NE
Pressure: 29.52"   Gusts: NA
Location:  61.88°N, 162.08°W
Report Text: PADM 240056Z AUTO 04011KT 10SM -SN SCT110 M09/M14 A2952 RMK AO2 TSNO T10941138 P0000 SLP987 $
Loading
Personal Weather Stations






























Interactive Weather Map New forecast layout! Learn more

10-Day Weather Forecast

Advertisements
Track Severe Weather on mobile